sensor_id;sensor_type;location;lat;lon;timestamp;P1;durP1;ratioP1;P2;durP2;ratioP2
1350;SDS011;669;50.206;9.998;2022-09-29T00:00:49;1.60;;;1.50;;
1350;SDS011;669;50.206;9.998;2022-09-29T00:03:18;1.77;;;1.67;;
1350;SDS011;669;50.206;9.998;2022-09-29T00:05:47;2.63;;;2.03;;
1350;SDS011;669;50.206;9.998;2022-09-29T00:08:17;2.30;;;1.77;;
1350;SDS011;669;50.206;9.998;2022-09-29T00:10:46;1.63;;;1.53;;
1350;SDS011;669;50.206;9.998;2022-09-29T00:13:15;2.40;;;1.43;;
1350;SDS011;669;50.206;9.998;2022-09-29T00:15:44;1.80;;;1.70;;
1350;SDS011;669;50.206;9.998;2022-09-29T00:18:21;1.70;;;1.60;;
1350;SDS011;669;50.206;9.998;2022-09-29T00:20:56;1.77;;;1.67;;
1350;SDS011;669;50.206;9.998;2022-09-29T00:23:25;2.50;;;2.40;;
1350;SDS011;669;50.206;9.998;2022-09-29T00:26:00;2.10;;;2.00;;
1350;SDS011;669;50.206;9.998;2022-09-29T00:28:32;2.10;;;2.00;;
1350;SDS011;669;50.206;9.998;2022-09-29T00:31:01;1.70;;;1.60;;
1350;SDS011;669;50.206;9.998;2022-09-29T00:33:31;1.83;;;1.70;;
1350;SDS011;669;50.206;9.998;2022-09-29T00:36:01;2.20;;;2.10;;
1350;SDS011;669;50.206;9.998;2022-09-29T00:38:31;2.87;;;2.10;;
1350;SDS011;669;50.206;9.998;2022-09-29T00:40:59;1.80;;;1.70;;
1350;SDS011;669;50.206;9.998;2022-09-29T00:46:18;2.60;;;2.37;;
1350;SDS011;669;50.206;9.998;2022-09-29T00:48:57;2.10;;;2.00;;
1350;SDS011;669;50.206;9.998;2022-09-29T00:51:28;1.97;;;1.87;;
1350;SDS011;669;50.206;9.998;2022-09-29T00:53:59;1.70;;;1.60;;
1350;SDS011;669;50.206;9.998;2022-09-29T00:56:27;2.33;;;1.90;;
1350;SDS011;669;50.206;9.998;2022-09-29T00:58:59;2.00;;;1.90;;
1350;SDS011;669;50.206;9.998;2022-09-29T01:01:29;1.60;;;1.50;;
1350;SDS011;669;50.206;9.998;2022-09-29T01:03:58;2.70;;;2.50;;
1350;SDS011;669;50.206;9.998;2022-09-29T01:06:30;2.27;;;2.10;;
1350;SDS011;669;50.206;9.998;2022-09-29T01:09:02;2.43;;;2.27;;
1350;SDS011;669;50.206;9.998;2022-09-29T01:11:32;1.87;;;1.77;;
1350;SDS011;669;50.206;9.998;2022-09-29T01:14:02;3.10;;;2.43;;
1350;SDS011;669;50.206;9.998;2022-09-29T01:16:33;2.27;;;2.13;;
1350;SDS011;669;50.206;9.998;2022-09-29T01:19:04;2.57;;;2.37;;
1350;SDS011;669;50.206;9.998;2022-09-29T01:21:34;2.60;;;2.27;;
1350;SDS011;669;50.206;9.998;2022-09-29T01:24:24;3.33;;;2.47;;
1350;SDS011;669;50.206;9.998;2022-09-29T01:27:15;2.00;;;1.90;;
1350;SDS011;669;50.206;9.998;2022-09-29T01:32:50;3.13;;;2.47;;
1350;SDS011;669;50.206;9.998;2022-09-29T01:35:46;2.40;;;2.20;;
1350;SDS011;669;50.206;9.998;2022-09-29T01:38:26;2.67;;;2.47;;
1350;SDS011;669;50.206;9.998;2022-09-29T01:41:05;3.57;;;2.70;;
1350;SDS011;669;50.206;9.998;2022-09-29T01:43:38;2.27;;;2.07;;
1350;SDS011;669;50.206;9.998;2022-09-29T01:46:11;1.90;;;1.80;;
1350;SDS011;669;50.206;9.998;2022-09-29T01:48:48;2.10;;;2.00;;
1350;SDS011;669;50.206;9.998;2022-09-29T01:51:21;2.10;;;1.97;;
1350;SDS011;669;50.206;9.998;2022-09-29T01:53:55;2.50;;;2.30;;
1350;SDS011;669;50.206;9.998;2022-09-29T01:56:28;2.47;;;2.30;;
1350;SDS011;669;50.206;9.998;2022-09-29T01:59:00;2.40;;;2.20;;
1350;SDS011;669;50.206;9.998;2022-09-29T02:01:33;2.43;;;2.33;;
1350;SDS011;669;50.206;9.998;2022-09-29T02:04:06;2.33;;;2.00;;
1350;SDS011;669;50.206;9.998;2022-09-29T02:06:42;1.90;;;1.80;;
1350;SDS011;669;50.206;9.998;2022-09-29T02:09:25;3.00;;;2.80;;
1350;SDS011;669;50.206;9.998;2022-09-29T02:11:56;2.47;;;2.27;;
1350;SDS011;669;50.206;9.998;2022-09-29T02:14:28;2.67;;;1.97;;
1350;SDS011;669;50.206;9.998;2022-09-29T02:17:02;2.13;;;2.03;;
1350;SDS011;669;50.206;9.998;2022-09-29T02:19:35;2.17;;;1.97;;
1350;SDS011;669;50.206;9.998;2022-09-29T02:22:07;2.43;;;2.00;;
1350;SDS011;669;50.206;9.998;2022-09-29T02:24:35;2.10;;;2.00;;
1350;SDS011;669;50.206;9.998;2022-09-29T02:27:03;2.57;;;2.37;;
1350;SDS011;669;50.206;9.998;2022-09-29T02:29:31;2.43;;;1.80;;
1350;SDS011;669;50.206;9.998;2022-09-29T02:32:02;2.40;;;1.83;;
1350;SDS011;669;50.206;9.998;2022-09-29T02:34:31;3.20;;;2.30;;
1350;SDS011;669;50.206;9.998;2022-09-29T02:37:04;3.30;;;2.70;;
1350;SDS011;669;50.206;9.998;2022-09-29T02:39:45;2.37;;;2.10;;
1350;SDS011;669;50.206;9.998;2022-09-29T02:42:24;2.20;;;2.10;;
1350;SDS011;669;50.206;9.998;2022-09-29T02:45:10;2.53;;;2.37;;
1350;SDS011;669;50.206;9.998;2022-09-29T02:47:57;2.50;;;2.30;;
1350;SDS011;669;50.206;9.998;2022-09-29T02:50:47;3.77;;;2.40;;
1350;SDS011;669;50.206;9.998;2022-09-29T02:53:34;1.77;;;1.67;;
1350;SDS011;669;50.206;9.998;2022-09-29T02:56:12;1.90;;;1.80;;
1350;SDS011;669;50.206;9.998;2022-09-29T02:58:50;2.60;;;2.43;;
1350;SDS011;669;50.206;9.998;2022-09-29T03:01:22;2.23;;;2.03;;
1350;SDS011;669;50.206;9.998;2022-09-29T03:03:51;2.33;;;2.13;;
1350;SDS011;669;50.206;9.998;2022-09-29T03:06:19;2.00;;;1.90;;
1350;SDS011;669;50.206;9.998;2022-09-29T03:08:48;3.87;;;2.13;;
1350;SDS011;669;50.206;9.998;2022-09-29T03:11:16;4.13;;;3.73;;
1350;SDS011;669;50.206;9.998;2022-09-29T03:13:44;3.07;;;2.50;;
1350;SDS011;669;50.206;9.998;2022-09-29T03:16:12;4.80;;;2.53;;
1350;SDS011;669;50.206;9.998;2022-09-29T03:18:40;3.30;;;2.90;;
1350;SDS011;669;50.206;9.998;2022-09-29T03:21:09;1.97;;;1.83;;
1350;SDS011;669;50.206;9.998;2022-09-29T03:23:38;1.87;;;1.40;;
1350;SDS011;669;50.206;9.998;2022-09-29T03:26:07;2.30;;;2.20;;
1350;SDS011;669;50.206;9.998;2022-09-29T03:28:35;2.90;;;2.40;;
1350;SDS011;669;50.206;9.998;2022-09-29T03:31:03;2.43;;;2.23;;
1350;SDS011;669;50.206;9.998;2022-09-29T03:33:34;2.50;;;2.30;;
1350;SDS011;669;50.206;9.998;2022-09-29T03:36:03;1.90;;;1.80;;
1350;SDS011;669;50.206;9.998;2022-09-29T03:38:32;2.23;;;2.03;;
1350;SDS011;669;50.206;9.998;2022-09-29T03:41:00;2.00;;;1.90;;
1350;SDS011;669;50.206;9.998;2022-09-29T03:43:29;2.10;;;1.90;;
1350;SDS011;669;50.206;9.998;2022-09-29T03:45:58;3.00;;;2.47;;
1350;SDS011;669;50.206;9.998;2022-09-29T03:48:26;2.77;;;2.57;;
1350;SDS011;669;50.206;9.998;2022-09-29T03:50:56;2.90;;;2.70;;
1350;SDS011;669;50.206;9.998;2022-09-29T03:53:24;3.87;;;3.57;;
1350;SDS011;669;50.206;9.998;2022-09-29T03:55:52;2.83;;;2.60;;
1350;SDS011;669;50.206;9.998;2022-09-29T03:58:20;3.60;;;3.30;;
1350;SDS011;669;50.206;9.998;2022-09-29T04:00:49;2.53;;;2.27;;
1350;SDS011;669;50.206;9.998;2022-09-29T04:03:17;3.13;;;2.10;;
1350;SDS011;669;50.206;9.998;2022-09-29T04:05:46;2.90;;;2.70;;
1350;SDS011;669;50.206;9.998;2022-09-29T04:08:15;2.80;;;2.60;;
1350;SDS011;669;50.206;9.998;2022-09-29T04:10:44;2.80;;;2.60;;
1350;SDS011;669;50.206;9.998;2022-09-29T04:13:13;3.10;;;2.90;;
1350;SDS011;669;50.206;9.998;2022-09-29T04:15:45;2.67;;;2.47;;
1350;SDS011;669;50.206;9.998;2022-09-29T04:18:15;2.97;;;2.77;;
1350;SDS011;669;50.206;9.998;2022-09-29T04:20:43;2.87;;;2.67;;
1350;SDS011;669;50.206;9.998;2022-09-29T04:23:11;2.40;;;2.20;;
1350;SDS011;669;50.206;9.998;2022-09-29T04:25:39;3.33;;;3.03;;
1350;SDS011;669;50.206;9.998;2022-09-29T04:28:06;3.80;;;3.40;;
1350;SDS011;669;50.206;9.998;2022-09-29T04:30:34;2.90;;;2.47;;
1350;SDS011;669;50.206;9.998;2022-09-29T04:33:02;2.80;;;2.60;;
1350;SDS011;669;50.206;9.998;2022-09-29T04:35:32;3.20;;;2.90;;
1350;SDS011;669;50.206;9.998;2022-09-29T04:38:02;3.10;;;2.90;;
1350;SDS011;669;50.206;9.998;2022-09-29T04:40:30;3.87;;;3.33;;
1350;SDS011;669;50.206;9.998;2022-09-29T04:42:58;2.90;;;2.60;;
1350;SDS011;669;50.206;9.998;2022-09-29T04:45:26;2.87;;;2.67;;
1350;SDS011;669;50.206;9.998;2022-09-29T04:47:54;2.97;;;2.73;;
1350;SDS011;669;50.206;9.998;2022-09-29T04:50:22;2.90;;;2.70;;
1350;SDS011;669;50.206;9.998;2022-09-29T04:52:52;3.70;;;3.13;;
1350;SDS011;669;50.206;9.998;2022-09-29T04:55:20;3.87;;;3.37;;
1350;SDS011;669;50.206;9.998;2022-09-29T04:57:48;2.60;;;2.40;;
1350;SDS011;669;50.206;9.998;2022-09-29T05:00:16;3.60;;;3.30;;
1350;SDS011;669;50.206;9.998;2022-09-29T05:02:44;3.60;;;2.90;;
1350;SDS011;669;50.206;9.998;2022-09-29T05:05:15;4.90;;;4.00;;
1350;SDS011;669;50.206;9.998;2022-09-29T05:07:43;3.40;;;3.10;;
1350;SDS011;669;50.206;9.998;2022-09-29T05:10:12;4.77;;;4.30;;
1350;SDS011;669;50.206;9.998;2022-09-29T05:12:40;4.10;;;3.80;;
1350;SDS011;669;50.206;9.998;2022-09-29T05:15:15;3.50;;;3.20;;
1350;SDS011;669;50.206;9.998;2022-09-29T05:17:50;3.47;;;3.17;;
1350;SDS011;669;50.206;9.998;2022-09-29T05:20:18;2.37;;;2.27;;
1350;SDS011;669;50.206;9.998;2022-09-29T05:22:46;2.57;;;2.37;;
1350;SDS011;669;50.206;9.998;2022-09-29T05:25:15;2.57;;;2.37;;
1350;SDS011;669;50.206;9.998;2022-09-29T05:27:43;2.27;;;2.17;;
1350;SDS011;669;50.206;9.998;2022-09-29T05:30:11;3.33;;;3.03;;
1350;SDS011;669;50.206;9.998;2022-09-29T05:32:41;2.50;;;2.30;;
1350;SDS011;669;50.206;9.998;2022-09-29T05:35:09;3.30;;;3.00;;
1350;SDS011;669;50.206;9.998;2022-09-29T05:37:37;3.03;;;2.83;;
1350;SDS011;669;50.206;9.998;2022-09-29T05:40:05;4.00;;;3.60;;
1350;SDS011;669;50.206;9.998;2022-09-29T05:42:36;4.80;;;4.37;;
1350;SDS011;669;50.206;9.998;2022-09-29T05:45:06;4.40;;;4.00;;
1350;SDS011;669;50.206;9.998;2022-09-29T05:47:39;6.13;;;5.33;;
1350;SDS011;669;50.206;9.998;2022-09-29T05:50:08;8.30;;;6.97;;
1350;SDS011;669;50.206;9.998;2022-09-29T05:52:36;10.13;;;8.20;;
1350;SDS011;669;50.206;9.998;2022-09-29T05:55:05;10.67;;;8.80;;
1350;SDS011;669;50.206;9.998;2022-09-29T05:57:37;7.97;;;7.17;;
1350;SDS011;669;50.206;9.998;2022-09-29T06:00:06;8.30;;;6.83;;
1350;SDS011;669;50.206;9.998;2022-09-29T06:02:34;7.00;;;6.30;;
1350;SDS011;669;50.206;9.998;2022-09-29T06:05:02;7.47;;;6.67;;
1350;SDS011;669;50.206;9.998;2022-09-29T06:07:30;7.37;;;6.60;;
1350;SDS011;669;50.206;9.998;2022-09-29T06:09:58;7.20;;;6.10;;
1350;SDS011;669;50.206;9.998;2022-09-29T06:12:26;8.80;;;6.73;;
1350;SDS011;669;50.206;9.998;2022-09-29T06:14:56;8.73;;;6.30;;
1350;SDS011;669;50.206;9.998;2022-09-29T06:17:24;7.23;;;6.23;;
1350;SDS011;669;50.206;9.998;2022-09-29T06:19:52;5.23;;;4.73;;
1350;SDS011;669;50.206;9.998;2022-09-29T06:22:20;5.83;;;5.10;;
1350;SDS011;669;50.206;9.998;2022-09-29T06:24:47;5.40;;;4.90;;
1350;SDS011;669;50.206;9.998;2022-09-29T06:27:15;5.07;;;4.57;;
1350;SDS011;669;50.206;9.998;2022-09-29T06:29:44;6.30;;;5.70;;
1350;SDS011;669;50.206;9.998;2022-09-29T06:32:13;5.00;;;4.50;;
1350;SDS011;669;50.206;9.998;2022-09-29T06:34:41;5.23;;;4.73;;
1350;SDS011;669;50.206;9.998;2022-09-29T06:37:24;5.50;;;5.03;;
1350;SDS011;669;50.206;9.998;2022-09-29T06:40:01;7.63;;;6.10;;
1350;SDS011;669;50.206;9.998;2022-09-29T06:42:36;5.50;;;4.83;;
1350;SDS011;669;50.206;9.998;2022-09-29T06:45:04;6.27;;;5.63;;
1350;SDS011;669;50.206;9.998;2022-09-29T06:47:34;5.80;;;5.20;;
1350;SDS011;669;50.206;9.998;2022-09-29T06:50:02;6.07;;;5.47;;
1350;SDS011;669;50.206;9.998;2022-09-29T06:52:44;5.10;;;4.70;;
1350;SDS011;669;50.206;9.998;2022-09-29T06:55:28;6.60;;;5.40;;
1350;SDS011;669;50.206;9.998;2022-09-29T06:57:56;6.40;;;5.27;;
1350;SDS011;669;50.206;9.998;2022-09-29T07:00:29;6.13;;;5.43;;
1350;SDS011;669;50.206;9.998;2022-09-29T07:03:01;5.83;;;5.13;;
1350;SDS011;669;50.206;9.998;2022-09-29T07:05:29;6.60;;;5.37;;
1350;SDS011;669;50.206;9.998;2022-09-29T07:07:58;8.17;;;6.67;;
1350;SDS011;669;50.206;9.998;2022-09-29T07:10:26;8.03;;;6.77;;
1350;SDS011;669;50.206;9.998;2022-09-29T07:12:55;8.83;;;6.60;;
1350;SDS011;669;50.206;9.998;2022-09-29T07:15:23;6.60;;;6.00;;
1350;SDS011;669;50.206;9.998;2022-09-29T07:17:57;7.10;;;6.23;;
1350;SDS011;669;50.206;9.998;2022-09-29T07:20:26;6.87;;;6.17;;
1350;SDS011;669;50.206;9.998;2022-09-29T07:22:55;9.50;;;8.10;;
1350;SDS011;669;50.206;9.998;2022-09-29T07:25:24;7.00;;;6.03;;
1350;SDS011;669;50.206;9.998;2022-09-29T07:28:12;7.93;;;6.93;;
1350;SDS011;669;50.206;9.998;2022-09-29T07:30:40;7.53;;;6.83;;
1350;SDS011;669;50.206;9.998;2022-09-29T07:33:08;7.27;;;5.77;;
1350;SDS011;669;50.206;9.998;2022-09-29T07:35:37;8.67;;;7.20;;
1350;SDS011;669;50.206;9.998;2022-09-29T07:38:05;5.63;;;5.13;;
1350;SDS011;669;50.206;9.998;2022-09-29T07:40:33;5.57;;;5.07;;
1350;SDS011;669;50.206;9.998;2022-09-29T07:43:01;9.80;;;6.77;;
1350;SDS011;669;50.206;9.998;2022-09-29T07:45:29;10.90;;;6.63;;
1350;SDS011;669;50.206;9.998;2022-09-29T07:47:58;10.47;;;8.07;;
1350;SDS011;669;50.206;9.998;2022-09-29T07:50:26;11.23;;;6.83;;
1350;SDS011;669;50.206;9.998;2022-09-29T07:52:55;10.53;;;8.90;;
1350;SDS011;669;50.206;9.998;2022-09-29T07:55:23;7.30;;;6.13;;
1350;SDS011;669;50.206;9.998;2022-09-29T07:57:52;7.10;;;5.40;;
1350;SDS011;669;50.206;9.998;2022-09-29T08:00:22;8.43;;;7.30;;
1350;SDS011;669;50.206;9.998;2022-09-29T08:02:50;8.00;;;5.97;;
1350;SDS011;669;50.206;9.998;2022-09-29T08:05:17;10.80;;;9.17;;
1350;SDS011;669;50.206;9.998;2022-09-29T08:07:49;9.73;;;8.47;;
1350;SDS011;669;50.206;9.998;2022-09-29T08:10:19;8.50;;;7.07;;
1350;SDS011;669;50.206;9.998;2022-09-29T08:12:47;8.13;;;6.80;;
1350;SDS011;669;50.206;9.998;2022-09-29T08:15:15;7.43;;;5.90;;
1350;SDS011;669;50.206;9.998;2022-09-29T08:17:43;5.83;;;5.20;;
1350;SDS011;669;50.206;9.998;2022-09-29T08:20:11;7.10;;;6.40;;
1350;SDS011;669;50.206;9.998;2022-09-29T08:22:40;6.20;;;5.60;;
1350;SDS011;669;50.206;9.998;2022-09-29T08:25:08;7.13;;;6.03;;
1350;SDS011;669;50.206;9.998;2022-09-29T08:27:37;6.03;;;5.43;;
1350;SDS011;669;50.206;9.998;2022-09-29T08:30:19;11.57;;;7.87;;
1350;SDS011;669;50.206;9.998;2022-09-29T08:32:49;8.20;;;7.07;;
1350;SDS011;669;50.206;9.998;2022-09-29T08:35:18;11.87;;;9.13;;
1350;SDS011;669;50.206;9.998;2022-09-29T08:37:46;10.40;;;8.40;;
1350;SDS011;669;50.206;9.998;2022-09-29T08:40:14;9.00;;;8.10;;
1350;SDS011;669;50.206;9.998;2022-09-29T08:42:47;8.23;;;6.83;;
1350;SDS011;669;50.206;9.998;2022-09-29T08:45:24;12.50;;;10.07;;
1350;SDS011;669;50.206;9.998;2022-09-29T08:47:59;16.77;;;11.50;;
1350;SDS011;669;50.206;9.998;2022-09-29T08:50:43;14.80;;;11.80;;
1350;SDS011;669;50.206;9.998;2022-09-29T08:53:15;11.50;;;9.00;;
1350;SDS011;669;50.206;9.998;2022-09-29T08:55:55;13.30;;;10.47;;
1350;SDS011;669;50.206;9.998;2022-09-29T08:58:28;13.23;;;9.70;;
1350;SDS011;669;50.206;9.998;2022-09-29T09:00:59;11.37;;;7.83;;
1350;SDS011;669;50.206;9.998;2022-09-29T09:03:51;10.83;;;9.27;;
1350;SDS011;669;50.206;9.998;2022-09-29T09:06:36;12.53;;;10.37;;
1350;SDS011;669;50.206;9.998;2022-09-29T09:09:36;12.63;;;10.50;;
1350;SDS011;669;50.206;9.998;2022-09-29T09:12:31;13.90;;;11.47;;
1350;SDS011;669;50.206;9.998;2022-09-29T09:15:22;15.63;;;13.60;;
1350;SDS011;669;50.206;9.998;2022-09-29T09:18:09;13.63;;;12.03;;
1350;SDS011;669;50.206;9.998;2022-09-29T09:20:58;17.60;;;12.00;;
1350;SDS011;669;50.206;9.998;2022-09-29T09:23:35;15.60;;;12.23;;
1350;SDS011;669;50.206;9.998;2022-09-29T09:26:13;15.40;;;12.53;;
1350;SDS011;669;50.206;9.998;2022-09-29T09:28:42;16.80;;;12.37;;
1350;SDS011;669;50.206;9.998;2022-09-29T09:31:17;16.93;;;12.70;;
1350;SDS011;669;50.206;9.998;2022-09-29T09:33:51;13.30;;;11.63;;
1350;SDS011;669;50.206;9.998;2022-09-29T09:36:32;13.60;;;11.90;;
1350;SDS011;669;50.206;9.998;2022-09-29T09:39:04;11.27;;;10.10;;
1350;SDS011;669;50.206;9.998;2022-09-29T09:41:39;13.43;;;12.07;;
1350;SDS011;669;50.206;9.998;2022-09-29T09:44:11;11.27;;;10.07;;
1350;SDS011;669;50.206;9.998;2022-09-29T09:46:44;9.63;;;8.37;;
1350;SDS011;669;50.206;9.998;2022-09-29T09:49:17;9.13;;;8.20;;
1350;SDS011;669;50.206;9.998;2022-09-29T09:51:50;13.60;;;12.00;;
1350;SDS011;669;50.206;9.998;2022-09-29T09:54:24;13.23;;;10.73;;
1350;SDS011;669;50.206;9.998;2022-09-29T09:59:58;13.37;;;10.57;;
1350;SDS011;669;50.206;9.998;2022-09-29T10:02:35;11.10;;;9.10;;
1350;SDS011;669;50.206;9.998;2022-09-29T10:05:09;7.40;;;6.70;;
1350;SDS011;669;50.206;9.998;2022-09-29T10:07:38;8.83;;;8.00;;
1350;SDS011;669;50.206;9.998;2022-09-29T10:10:12;11.47;;;9.50;;
1350;SDS011;669;50.206;9.998;2022-09-29T10:12:43;12.07;;;10.90;;
1350;SDS011;669;50.206;9.998;2022-09-29T10:15:14;14.83;;;11.30;;
1350;SDS011;669;50.206;9.998;2022-09-29T10:17:48;11.53;;;10.33;;
1350;SDS011;669;50.206;9.998;2022-09-29T10:20:28;14.90;;;11.30;;
1350;SDS011;669;50.206;9.998;2022-09-29T10:25:50;13.50;;;9.60;;
1350;SDS011;669;50.206;9.998;2022-09-29T10:28:21;10.77;;;9.77;;
1350;SDS011;669;50.206;9.998;2022-09-29T10:30:50;10.70;;;9.60;;
1350;SDS011;669;50.206;9.998;2022-09-29T10:33:22;16.40;;;10.00;;
1350;SDS011;669;50.206;9.998;2022-09-29T10:36:02;10.10;;;9.10;;
1350;SDS011;669;50.206;9.998;2022-09-29T10:38:33;10.20;;;8.33;;
1350;SDS011;669;50.206;9.998;2022-09-29T10:41:04;9.30;;;7.90;;
1350;SDS011;669;50.206;9.998;2022-09-29T10:43:35;6.83;;;6.27;;
1350;SDS011;669;50.206;9.998;2022-09-29T10:46:05;7.47;;;6.87;;
1350;SDS011;669;50.206;9.998;2022-09-29T10:49:08;9.93;;;8.93;;
1350;SDS011;669;50.206;9.998;2022-09-29T10:51:39;8.50;;;7.57;;
1350;SDS011;669;50.206;9.998;2022-09-29T10:54:08;8.50;;;6.77;;
1350;SDS011;669;50.206;9.998;2022-09-29T10:56:43;6.33;;;5.73;;
1350;SDS011;669;50.206;9.998;2022-09-29T10:59:14;9.50;;;7.53;;
1350;SDS011;669;50.206;9.998;2022-09-29T11:01:44;8.00;;;7.20;;
1350;SDS011;669;50.206;9.998;2022-09-29T11:04:18;12.10;;;7.63;;
1350;SDS011;669;50.206;9.998;2022-09-29T11:06:49;6.40;;;5.30;;
1350;SDS011;669;50.206;9.998;2022-09-29T11:09:25;9.17;;;6.50;;
1350;SDS011;669;50.206;9.998;2022-09-29T11:12:01;9.30;;;8.13;;
1350;SDS011;669;50.206;9.998;2022-09-29T11:14:39;9.33;;;8.03;;
1350;SDS011;669;50.206;9.998;2022-09-29T11:17:21;9.13;;;7.30;;
1350;SDS011;669;50.206;9.998;2022-09-29T11:19:52;7.37;;;6.43;;
1350;SDS011;669;50.206;9.998;2022-09-29T11:22:27;6.93;;;6.33;;
1350;SDS011;669;50.206;9.998;2022-09-29T11:28:24;8.30;;;5.53;;
1350;SDS011;669;50.206;9.998;2022-09-29T11:31:12;5.50;;;5.00;;
1350;SDS011;669;50.206;9.998;2022-09-29T11:33:59;4.40;;;4.00;;
1350;SDS011;669;50.206;9.998;2022-09-29T11:36:44;3.50;;;3.20;;
1350;SDS011;669;50.206;9.998;2022-09-29T11:39:23;5.50;;;5.00;;
1350;SDS011;669;50.206;9.998;2022-09-29T11:42:03;5.80;;;4.80;;
1350;SDS011;669;50.206;9.998;2022-09-29T11:44:44;5.40;;;4.90;;
1350;SDS011;669;50.206;9.998;2022-09-29T11:47:34;6.80;;;5.50;;
1350;SDS011;669;50.206;9.998;2022-09-29T11:50:21;5.20;;;4.80;;
1350;SDS011;669;50.206;9.998;2022-09-29T11:56:03;5.83;;;4.87;;
1350;SDS011;669;50.206;9.998;2022-09-29T11:58:46;4.30;;;3.80;;
1350;SDS011;669;50.206;9.998;2022-09-29T12:01:25;4.30;;;3.90;;
1350;SDS011;669;50.206;9.998;2022-09-29T12:04:06;4.57;;;4.17;;
1350;SDS011;669;50.206;9.998;2022-09-29T12:09:37;4.60;;;4.20;;
1350;SDS011;669;50.206;9.998;2022-09-29T12:12:23;5.30;;;4.80;;
1350;SDS011;669;50.206;9.998;2022-09-29T12:15:07;6.97;;;4.50;;
1350;SDS011;669;50.206;9.998;2022-09-29T12:17:46;6.13;;;3.83;;
1350;SDS011;669;50.206;9.998;2022-09-29T12:20:19;3.17;;;2.93;;
1350;SDS011;669;50.206;9.998;2022-09-29T12:22:51;4.50;;;3.60;;
1350;SDS011;669;50.206;9.998;2022-09-29T12:25:23;4.10;;;3.50;;
1350;SDS011;669;50.206;9.998;2022-09-29T12:27:53;4.13;;;3.20;;
1350;SDS011;669;50.206;9.998;2022-09-29T12:30:27;4.80;;;3.40;;
1350;SDS011;669;50.206;9.998;2022-09-29T12:32:58;5.83;;;3.93;;
1350;SDS011;669;50.206;9.998;2022-09-29T12:35:33;3.93;;;3.20;;
1350;SDS011;669;50.206;9.998;2022-09-29T12:38:08;5.67;;;3.67;;
1350;SDS011;669;50.206;9.998;2022-09-29T12:40:48;6.70;;;4.50;;
1350;SDS011;669;50.206;9.998;2022-09-29T12:43:30;3.13;;;2.83;;
1350;SDS011;669;50.206;9.998;2022-09-29T12:46:08;4.27;;;2.93;;
1350;SDS011;669;50.206;9.998;2022-09-29T12:48:45;3.63;;;3.33;;
1350;SDS011;669;50.206;9.998;2022-09-29T12:51:25;2.60;;;2.40;;
1350;SDS011;669;50.206;9.998;2022-09-29T12:54:02;5.90;;;2.50;;
1350;SDS011;669;50.206;9.998;2022-09-29T12:56:44;2.70;;;2.50;;
1350;SDS011;669;50.206;9.998;2022-09-29T12:59:18;3.10;;;2.90;;
1350;SDS011;669;50.206;9.998;2022-09-29T13:01:54;3.10;;;2.80;;
1350;SDS011;669;50.206;9.998;2022-09-29T13:07:46;3.10;;;2.50;;
1350;SDS011;669;50.206;9.998;2022-09-29T13:10:43;4.10;;;2.50;;
1350;SDS011;669;50.206;9.998;2022-09-29T13:13:34;2.47;;;2.27;;
1350;SDS011;669;50.206;9.998;2022-09-29T13:16:24;3.80;;;2.70;;
1350;SDS011;669;50.206;9.998;2022-09-29T13:25:20;2.77;;;2.10;;
1350;SDS011;669;50.206;9.998;2022-09-29T13:27:51;2.37;;;2.20;;
1350;SDS011;669;50.206;9.998;2022-09-29T13:30:23;2.80;;;2.60;;
1350;SDS011;669;50.206;9.998;2022-09-29T13:32:56;10.33;;;2.73;;
1350;SDS011;669;50.206;9.998;2022-09-29T13:35:27;4.97;;;3.73;;
1350;SDS011;669;50.206;9.998;2022-09-29T13:38:04;7.10;;;4.83;;
1350;SDS011;669;50.206;9.998;2022-09-29T13:40:34;4.43;;;4.10;;
1350;SDS011;669;50.206;9.998;2022-09-29T13:43:02;6.00;;;4.93;;
1350;SDS011;669;50.206;9.998;2022-09-29T13:45:37;4.43;;;2.80;;
1350;SDS011;669;50.206;9.998;2022-09-29T13:51:28;2.03;;;1.90;;
1350;SDS011;669;50.206;9.998;2022-09-29T13:54:20;3.87;;;3.17;;
1350;SDS011;669;50.206;9.998;2022-09-29T13:57:19;7.60;;;2.57;;
1350;SDS011;669;50.206;9.998;2022-09-29T14:00:00;2.10;;;1.90;;
1350;SDS011;669;50.206;9.998;2022-09-29T14:02:42;3.10;;;1.80;;
1350;SDS011;669;50.206;9.998;2022-09-29T14:08:07;1.40;;;1.30;;
1350;SDS011;669;50.206;9.998;2022-09-29T14:10:42;2.93;;;1.33;;
1350;SDS011;669;50.206;9.998;2022-09-29T14:13:16;1.57;;;1.50;;
1350;SDS011;669;50.206;9.998;2022-09-29T14:15:51;2.50;;;1.90;;
1350;SDS011;669;50.206;9.998;2022-09-29T14:18:31;3.17;;;1.87;;
1350;SDS011;669;50.206;9.998;2022-09-29T14:21:04;2.73;;;2.07;;
1350;SDS011;669;50.206;9.998;2022-09-29T14:23:47;1.57;;;1.47;;
1350;SDS011;669;50.206;9.998;2022-09-29T14:29:15;6.57;;;4.77;;
1350;SDS011;669;50.206;9.998;2022-09-29T14:31:45;4.13;;;2.50;;
1350;SDS011;669;50.206;9.998;2022-09-29T14:34:20;2.70;;;2.47;;
1350;SDS011;669;50.206;9.998;2022-09-29T14:36:50;2.57;;;2.37;;
1350;SDS011;669;50.206;9.998;2022-09-29T14:39:20;5.63;;;2.03;;
1350;SDS011;669;50.206;9.998;2022-09-29T14:41:52;4.90;;;2.50;;
1350;SDS011;669;50.206;9.998;2022-09-29T14:44:23;2.67;;;1.93;;
1350;SDS011;669;50.206;9.998;2022-09-29T14:47:18;2.40;;;2.20;;
1350;SDS011;669;50.206;9.998;2022-09-29T14:50:23;2.67;;;1.77;;
1350;SDS011;669;50.206;9.998;2022-09-29T14:53:34;1.90;;;1.70;;
1350;SDS011;669;50.206;9.998;2022-09-29T14:56:16;1.83;;;1.73;;
1350;SDS011;669;50.206;9.998;2022-09-29T14:58:57;1.20;;;1.20;;
1350;SDS011;669;50.206;9.998;2022-09-29T15:01:36;3.00;;;1.50;;
1350;SDS011;669;50.206;9.998;2022-09-29T15:04:10;1.37;;;1.10;;
1350;SDS011;669;50.206;9.998;2022-09-29T15:06:46;1.50;;;1.40;;
1350;SDS011;669;50.206;9.998;2022-09-29T15:09:15;2.90;;;1.63;;
1350;SDS011;669;50.206;9.998;2022-09-29T15:11:47;3.13;;;1.47;;
1350;SDS011;669;50.206;9.998;2022-09-29T15:14:21;1.70;;;1.60;;
1350;SDS011;669;50.206;9.998;2022-09-29T15:16:55;1.73;;;1.63;;
1350;SDS011;669;50.206;9.998;2022-09-29T15:19:40;1.70;;;1.37;;
1350;SDS011;669;50.206;9.998;2022-09-29T15:22:36;3.10;;;2.73;;
1350;SDS011;669;50.206;9.998;2022-09-29T15:25:19;2.20;;;1.73;;
1350;SDS011;669;50.206;9.998;2022-09-29T15:27:56;1.90;;;1.80;;
1350;SDS011;669;50.206;9.998;2022-09-29T15:30:27;2.47;;;2.27;;
1350;SDS011;669;50.206;9.998;2022-09-29T15:33:08;1.70;;;1.60;;
1350;SDS011;669;50.206;9.998;2022-09-29T15:35:45;2.33;;;2.00;;
1350;SDS011;669;50.206;9.998;2022-09-29T15:38:28;3.77;;;1.87;;
1350;SDS011;669;50.206;9.998;2022-09-29T15:41:00;2.77;;;1.60;;
1350;SDS011;669;50.206;9.998;2022-09-29T15:43:38;1.73;;;1.63;;
1350;SDS011;669;50.206;9.998;2022-09-29T15:46:12;1.80;;;1.50;;
1350;SDS011;669;50.206;9.998;2022-09-29T15:49:03;1.47;;;1.37;;
1350;SDS011;669;50.206;9.998;2022-09-29T15:51:44;1.20;;;1.10;;
1350;SDS011;669;50.206;9.998;2022-09-29T15:54:23;1.30;;;1.20;;
1350;SDS011;669;50.206;9.998;2022-09-29T15:56:52;3.17;;;1.47;;
1350;SDS011;669;50.206;9.998;2022-09-29T15:59:42;1.60;;;1.50;;
1350;SDS011;669;50.206;9.998;2022-09-29T16:02:18;2.73;;;1.60;;
1350;SDS011;669;50.206;9.998;2022-09-29T16:04:50;1.70;;;1.60;;
1350;SDS011;669;50.206;9.998;2022-09-29T16:07:22;2.10;;;1.67;;
1350;SDS011;669;50.206;9.998;2022-09-29T16:09:58;1.37;;;1.30;;
1350;SDS011;669;50.206;9.998;2022-09-29T16:12:29;1.50;;;1.10;;
1350;SDS011;669;50.206;9.998;2022-09-29T16:15:01;1.73;;;1.63;;
1350;SDS011;669;50.206;9.998;2022-09-29T16:17:29;1.47;;;1.20;;
1350;SDS011;669;50.206;9.998;2022-09-29T16:19:57;1.40;;;1.30;;
1350;SDS011;669;50.206;9.998;2022-09-29T16:22:26;1.67;;;1.57;;
1350;SDS011;669;50.206;9.998;2022-09-29T16:25:06;1.37;;;1.20;;
1350;SDS011;669;50.206;9.998;2022-09-29T16:27:50;1.43;;;1.33;;
1350;SDS011;669;50.206;9.998;2022-09-29T16:30:21;1.57;;;1.47;;
1350;SDS011;669;50.206;9.998;2022-09-29T16:32:52;1.33;;;1.23;;
1350;SDS011;669;50.206;9.998;2022-09-29T16:35:40;1.17;;;1.17;;
1350;SDS011;669;50.206;9.998;2022-09-29T16:38:15;2.00;;;1.50;;
1350;SDS011;669;50.206;9.998;2022-09-29T16:40:47;1.70;;;1.60;;
1350;SDS011;669;50.206;9.998;2022-09-29T16:43:18;1.57;;;1.47;;
1350;SDS011;669;50.206;9.998;2022-09-29T16:45:49;1.30;;;1.30;;
1350;SDS011;669;50.206;9.998;2022-09-29T16:48:20;1.47;;;1.40;;